sensor_id;sensor_type;location;lat;lon;timestamp;pressure;altitude;pressure_sealevel;temperature;humidity
36788;BME280;22738;45.560;9.434;2022-12-18T00:06:40;100953.19;;;5.61;100.00
36788;BME280;22738;45.560;9.434;2022-12-18T00:13:21;100960.13;;;5.59;100.00
36788;BME280;22738;45.560;9.434;2022-12-18T00:20:03;100968.63;;;5.61;100.00
36788;BME280;22738;45.560;9.434;2022-12-18T00:26:45;100975.72;;;5.53;100.00
36788;BME280;22738;45.560;9.434;2022-12-18T00:33:26;100970.22;;;5.67;100.00
36788;BME280;22738;45.560;9.434;2022-12-18T00:40:07;100984.22;;;5.55;100.00
36788;BME280;22738;45.560;9.434;2022-12-18T00:46:48;100992.34;;;5.72;100.00
36788;BME280;22738;45.560;9.434;2022-12-18T00:53:30;100996.44;;;5.79;100.00
36788;BME280;22738;45.560;9.434;2022-12-18T01:00:14;101010.81;;;5.90;100.00
36788;BME280;22738;45.560;9.434;2022-12-18T01:06:56;101026.09;;;5.96;100.00
36788;BME280;22738;45.560;9.434;2022-12-18T01:13:38;101039.81;;;5.96;100.00
36788;BME280;22738;45.560;9.434;2022-12-18T01:20:19;101044.53;;;6.13;100.00
36788;BME280;22738;45.560;9.434;2022-12-18T01:27:00;101059.59;;;6.26;100.00
36788;BME280;22738;45.560;9.434;2022-12-18T01:33:41;101057.72;;;6.33;100.00
36788;BME280;22738;45.560;9.434;2022-12-18T01:40:23;101078.06;;;6.42;100.00
36788;BME280;22738;45.560;9.434;2022-12-18T01:47:06;101094.38;;;6.42;100.00
36788;BME280;22738;45.560;9.434;2022-12-18T01:53:47;101100.44;;;6.40;100.00
36788;BME280;22738;45.560;9.434;2022-12-18T02:00:29;101102.97;;;6.41;100.00
36788;BME280;22738;45.560;9.434;2022-12-18T02:27:54;101125.94;;;6.49;100.00
36788;BME280;22738;45.560;9.434;2022-12-18T02:34:43;101112.25;;;6.47;100.00
36788;BME280;22738;45.560;9.434;2022-12-18T02:41:29;101117.41;;;6.47;100.00
36788;BME280;22738;45.560;9.434;2022-12-18T02:48:12;101108.88;;;6.45;100.00
36788;BME280;22738;45.560;9.434;2022-12-18T02:55:10;101124.41;;;6.42;100.00
36788;BME280;22738;45.560;9.434;2022-12-18T03:02:00;101130.44;;;6.41;100.00
36788;BME280;22738;45.560;9.434;2022-12-18T03:08:47;101148.63;;;6.35;100.00
36788;BME280;22738;45.560;9.434;2022-12-18T03:15:35;101149.72;;;6.26;100.00
36788;BME280;22738;45.560;9.434;2022-12-18T03:22:27;101145.41;;;6.27;100.00
36788;BME280;22738;45.560;9.434;2022-12-18T03:29:22;101159.16;;;6.26;100.00
36788;BME280;22738;45.560;9.434;2022-12-18T03:36:06;101158.34;;;6.24;100.00
36788;BME280;22738;45.560;9.434;2022-12-18T03:42:52;101164.47;;;6.20;100.00
36788;BME280;22738;45.560;9.434;2022-12-18T03:56:52;101173.06;;;6.19;100.00
36788;BME280;22738;45.560;9.434;2022-12-18T04:03:36;101175.69;;;6.17;100.00
36788;BME280;22738;45.560;9.434;2022-12-18T04:10:21;101190.28;;;6.17;100.00
36788;BME280;22738;45.560;9.434;2022-12-18T04:17:03;101191.88;;;6.21;100.00
36788;BME280;22738;45.560;9.434;2022-12-18T04:23:47;101205.56;;;6.23;100.00
36788;BME280;22738;45.560;9.434;2022-12-18T04:30:28;101195.13;;;6.29;100.00
36788;BME280;22738;45.560;9.434;2022-12-18T04:37:09;101209.88;;;6.22;100.00
36788;BME280;22738;45.560;9.434;2022-12-18T04:43:53;101224.47;;;6.22;100.00
36788;BME280;22738;45.560;9.434;2022-12-18T04:50:34;101245.84;;;6.25;100.00
36788;BME280;22738;45.560;9.434;2022-12-18T04:57:15;101246.56;;;6.30;100.00
36788;BME280;22738;45.560;9.434;2022-12-18T05:03:56;101246.63;;;6.29;100.00
36788;BME280;22738;45.560;9.434;2022-12-18T05:10:37;101260.31;;;6.31;100.00
36788;BME280;22738;45.560;9.434;2022-12-18T05:17:18;101274.97;;;6.27;100.00
36788;BME280;22738;45.560;9.434;2022-12-18T05:23:59;101285.25;;;6.27;100.00
36788;BME280;22738;45.560;9.434;2022-12-18T05:30:48;101292.13;;;6.28;100.00
36788;BME280;22738;45.560;9.434;2022-12-18T05:37:29;101287.88;;;6.26;100.00
36788;BME280;22738;45.560;9.434;2022-12-18T05:44:12;101288.59;;;6.32;100.00
36788;BME280;22738;45.560;9.434;2022-12-18T05:50:53;101310.03;;;6.33;100.00
36788;BME280;22738;45.560;9.434;2022-12-18T05:57:34;101310.13;;;6.28;100.00
36788;BME280;22738;45.560;9.434;2022-12-18T06:04:15;101317.16;;;6.22;100.00
36788;BME280;22738;45.560;9.434;2022-12-18T06:10:56;101330.84;;;6.24;100.00
36788;BME280;22738;45.560;9.434;2022-12-18T06:17:37;101336.03;;;6.21;100.00
36788;BME280;22738;45.560;9.434;2022-12-18T06:24:18;101336.75;;;6.27;100.00
36788;BME280;22738;45.560;9.434;2022-12-18T06:30:59;101339.44;;;6.23;100.00
36788;BME280;22738;45.560;9.434;2022-12-18T06:37:40;101349.72;;;6.23;100.00
36788;BME280;22738;45.560;9.434;2022-12-18T06:44:22;101349.72;;;6.23;100.00
36788;BME280;22738;45.560;9.434;2022-12-18T06:51:03;101348.16;;;6.16;100.00
36788;BME280;22738;45.560;9.434;2022-12-18T06:57:44;101367.94;;;6.15;100.00
36788;BME280;22738;45.560;9.434;2022-12-18T07:04:29;101373.03;;;6.17;100.00
36788;BME280;22738;45.560;9.434;2022-12-18T07:11:11;101387.53;;;6.21;100.00
36788;BME280;22738;45.560;9.434;2022-12-18T07:17:52;101405.47;;;6.25;100.00
36788;BME280;22738;45.560;9.434;2022-12-18T07:24:33;101414.03;;;6.26;100.00
36788;BME280;22738;45.560;9.434;2022-12-18T07:31:21;101431.34;;;6.18;100.00
36788;BME280;22738;45.560;9.434;2022-12-18T07:38:02;101442.44;;;6.21;100.00
36788;BME280;22738;45.560;9.434;2022-12-18T07:44:43;101461.38;;;6.19;100.00
36788;BME280;22738;45.560;9.434;2022-12-18T07:51:24;101475.91;;;6.21;100.00
36788;BME280;22738;45.560;9.434;2022-12-18T07:58:07;101488.84;;;6.20;100.00
36788;BME280;22738;45.560;9.434;2022-12-18T08:04:48;101492.13;;;6.26;100.00
36788;BME280;22738;45.560;9.434;2022-12-18T08:11:30;101507.41;;;6.34;100.00
36788;BME280;22738;45.560;9.434;2022-12-18T08:18:11;101518.44;;;6.42;100.00
36788;BME280;22738;45.560;9.434;2022-12-18T08:24:52;101519.19;;;6.47;100.00
36788;BME280;22738;45.560;9.434;2022-12-18T08:31:33;101527.72;;;6.49;100.00
36788;BME280;22738;45.560;9.434;2022-12-18T08:38:14;101520.78;;;6.54;100.00
36788;BME280;22738;45.560;9.434;2022-12-18T08:44:55;101525.03;;;6.55;100.00
36788;BME280;22738;45.560;9.434;2022-12-18T08:51:37;101530.03;;;6.63;100.00
36788;BME280;22738;45.560;9.434;2022-12-18T08:58:18;101529.84;;;6.72;100.00
36788;BME280;22738;45.560;9.434;2022-12-18T09:05:01;101538.97;;;6.86;100.00
36788;BME280;22738;45.560;9.434;2022-12-18T09:11:42;101550.94;;;6.90;100.00
36788;BME280;22738;45.560;9.434;2022-12-18T09:18:23;101561.25;;;7.27;100.00
36788;BME280;22738;45.560;9.434;2022-12-18T09:25:08;101569.59;;;7.75;100.00
36788;BME280;22738;45.560;9.434;2022-12-18T09:31:49;101569.91;;;7.63;100.00
36788;BME280;22738;45.560;9.434;2022-12-18T09:38:31;101577.44;;;8.04;100.00
36788;BME280;22738;45.560;9.434;2022-12-18T09:45:14;101565.44;;;8.37;100.00
36788;BME280;22738;45.560;9.434;2022-12-18T09:58:58;101552.88;;;8.85;100.00
36788;BME280;22738;45.560;9.434;2022-12-18T10:20:05;101557.56;;;8.72;100.00
36788;BME280;22738;45.560;9.434;2022-12-18T10:26:52;101566.91;;;8.47;100.00
36788;BME280;22738;45.560;9.434;2022-12-18T10:33:34;101559.16;;;8.45;100.00
36788;BME280;22738;45.560;9.434;2022-12-18T10:40:15;101549.28;;;8.90;100.00
36788;BME280;22738;45.560;9.434;2022-12-18T10:47:04;101539.28;;;9.07;100.00
36788;BME280;22738;45.560;9.434;2022-12-18T10:53:52;101545.56;;;8.99;100.00
36788;BME280;22738;45.560;9.434;2022-12-18T11:00:35;101552.16;;;9.09;100.00
36788;BME280;22738;45.560;9.434;2022-12-18T11:07:16;101545.03;;;9.15;100.00
36788;BME280;22738;45.560;9.434;2022-12-18T11:14:06;101549.84;;;9.27;100.00
36788;BME280;22738;45.560;9.434;2022-12-18T11:20:53;101550.00;;;9.23;100.00
36788;BME280;22738;45.560;9.434;2022-12-18T11:27:34;101558.47;;;9.28;100.00
36788;BME280;22738;45.560;9.434;2022-12-18T11:34:30;101556.75;;;9.27;100.00
36788;BME280;22738;45.560;9.434;2022-12-18T11:48:23;101545.88;;;9.44;100.00
36788;BME280;22738;45.560;9.434;2022-12-18T12:16:51;101499.84;;;8.42;100.00
36788;BME280;22738;45.560;9.434;2022-12-18T12:44:16;101489.03;;;8.87;100.00
36788;BME280;22738;45.560;9.434;2022-12-18T12:51:28;101494.84;;;8.95;100.00
36788;BME280;22738;45.560;9.434;2022-12-18T13:05:42;101489.66;;;8.95;100.00
36788;BME280;22738;45.560;9.434;2022-12-18T13:12:25;101479.06;;;9.02;100.00
36788;BME280;22738;45.560;9.434;2022-12-18T13:19:26;101474.47;;;9.12;100.00
36788;BME280;22738;45.560;9.434;2022-12-18T13:39:55;101472.25;;;9.00;100.00
36788;BME280;22738;45.560;9.434;2022-12-18T13:46:47;101468.16;;;8.93;100.00
36788;BME280;22738;45.560;9.434;2022-12-18T14:00:29;101453.59;;;8.90;100.00
36788;BME280;22738;45.560;9.434;2022-12-18T14:07:14;101445.16;;;8.84;100.00
36788;BME280;22738;45.560;9.434;2022-12-18T14:13:56;101454.53;;;8.88;100.00
36788;BME280;22738;45.560;9.434;2022-12-18T14:20:41;101472.78;;;8.83;100.00
36788;BME280;22738;45.560;9.434;2022-12-18T14:27:29;101481.63;;;8.75;100.00
36788;BME280;22738;45.560;9.434;2022-12-18T14:34:16;101474.22;;;8.64;100.00
36788;BME280;22738;45.560;9.434;2022-12-18T14:41:00;101478.06;;;8.51;100.00
36788;BME280;22738;45.560;9.434;2022-12-18T14:47:43;101484.47;;;8.38;100.00
36788;BME280;22738;45.560;9.434;2022-12-18T14:54:25;101502.91;;;8.24;100.00
36788;BME280;22738;45.560;9.434;2022-12-18T15:01:06;101504.94;;;8.12;100.00
36788;BME280;22738;45.560;9.434;2022-12-18T15:07:52;101497.75;;;7.92;100.00
36788;BME280;22738;45.560;9.434;2022-12-18T15:14:40;101505.97;;;7.74;100.00
36788;BME280;22738;45.560;9.434;2022-12-18T15:21:21;101505.47;;;7.60;100.00
36788;BME280;22738;45.560;9.434;2022-12-18T15:28:03;101506.78;;;7.41;100.00
36788;BME280;22738;45.560;9.434;2022-12-18T15:34:44;101513.19;;;7.25;100.00
36788;BME280;22738;45.560;9.434;2022-12-18T15:41:26;101525.66;;;7.06;100.00
36788;BME280;22738;45.560;9.434;2022-12-18T15:48:21;101530.38;;;6.87;100.00
36788;BME280;22738;45.560;9.434;2022-12-18T15:55:08;101533.38;;;6.68;100.00
36788;BME280;22738;45.560;9.434;2022-12-18T16:02:15;101524.25;;;6.50;100.00
36788;BME280;22738;45.560;9.434;2022-12-18T16:08:57;101528.00;;;6.34;100.00
36788;BME280;22738;45.560;9.434;2022-12-18T16:15:40;101527.47;;;6.18;100.00
36788;BME280;22738;45.560;9.434;2022-12-18T16:22:26;101528.56;;;6.05;100.00
36788;BME280;22738;45.560;9.434;2022-12-18T16:29:09;101535.66;;;5.91;100.00
36788;BME280;22738;45.560;9.434;2022-12-18T16:35:52;101540.09;;;5.82;100.00
36788;BME280;22738;45.560;9.434;2022-12-18T16:42:33;101542.78;;;5.75;100.00
36788;BME280;22738;45.560;9.434;2022-12-18T16:49:15;101547.06;;;5.75;100.00
36788;BME280;22738;45.560;9.434;2022-12-18T16:55:57;101547.00;;;5.79;100.00
36788;BME280;22738;45.560;9.434;2022-12-18T17:02:38;101550.44;;;5.77;100.00
36788;BME280;22738;45.560;9.434;2022-12-18T17:09:20;101563.34;;;5.75;100.00
36788;BME280;22738;45.560;9.434;2022-12-18T17:16:09;101559.84;;;5.79;100.00
36788;BME280;22738;45.560;9.434;2022-12-18T17:22:51;101560.75;;;5.77;100.00
36788;BME280;22738;45.560;9.434;2022-12-18T17:29:32;101569.47;;;5.68;100.00
36788;BME280;22738;45.560;9.434;2022-12-18T17:36:13;101557.78;;;5.48;100.00
36788;BME280;22738;45.560;9.434;2022-12-18T17:42:56;101569.03;;;5.42;100.00
36788;BME280;22738;45.560;9.434;2022-12-18T17:49:38;101585.94;;;5.58;100.00
36788;BME280;22738;45.560;9.434;2022-12-18T17:56:20;101582.44;;;5.62;100.00
36788;BME280;22738;45.560;9.434;2022-12-18T18:03:03;101590.06;;;5.68;100.00
36788;BME280;22738;45.560;9.434;2022-12-18T18:09:45;101582.47;;;5.59;100.00
36788;BME280;22738;45.560;9.434;2022-12-18T18:16:34;101588.50;;;5.58;100.00
36788;BME280;22738;45.560;9.434;2022-12-18T18:23:17;101592.88;;;5.53;100.00
36788;BME280;22738;45.560;9.434;2022-12-18T18:29:58;101591.22;;;5.49;100.00
36788;BME280;22738;45.560;9.434;2022-12-18T18:36:39;101594.81;;;5.36;100.00
36788;BME280;22738;45.560;9.434;2022-12-18T18:43:21;101602.34;;;5.50;100.00
36788;BME280;22738;45.560;9.434;2022-12-18T18:50:02;101615.34;;;5.39;100.00
36788;BME280;22738;45.560;9.434;2022-12-18T18:56:43;101619.53;;;5.46;100.00
36788;BME280;22738;45.560;9.434;2022-12-18T19:03:25;101621.25;;;5.46;100.00
36788;BME280;22738;45.560;9.434;2022-12-18T19:10:08;101628.13;;;5.47;100.00
36788;BME280;22738;45.560;9.434;2022-12-18T19:16:49;101627.13;;;5.55;100.00
36788;BME280;22738;45.560;9.434;2022-12-18T19:23:31;101628.78;;;5.59;100.00
36788;BME280;22738;45.560;9.434;2022-12-18T19:30:13;101629.66;;;5.58;100.00
36788;BME280;22738;45.560;9.434;2022-12-18T19:36:54;101629.53;;;5.67;100.00
36788;BME280;22738;45.560;9.434;2022-12-18T19:43:37;101627.84;;;5.65;100.00
36788;BME280;22738;45.560;9.434;2022-12-18T19:50:18;101632.91;;;5.68;100.00
36788;BME280;22738;45.560;9.434;2022-12-18T19:56:59;101642.41;;;5.64;100.00
36788;BME280;22738;45.560;9.434;2022-12-18T20:03:42;101653.59;;;5.62;100.00
36788;BME280;22738;45.560;9.434;2022-12-18T20:10:23;101658.75;;;5.62;100.00
36788;BME280;22738;45.560;9.434;2022-12-18T20:17:05;101670.00;;;5.56;100.00
36788;BME280;22738;45.560;9.434;2022-12-18T20:23:46;101667.44;;;5.53;100.00
36788;BME280;22738;45.560;9.434;2022-12-18T20:30:27;101676.91;;;5.51;100.00
36788;BME280;22738;45.560;9.434;2022-12-18T20:37:08;101682.09;;;5.48;100.00
36788;BME280;22738;45.560;9.434;2022-12-18T20:43:49;101682.06;;;5.51;100.00
36788;BME280;22738;45.560;9.434;2022-12-18T20:50:31;101672.69;;;5.46;100.00
36788;BME280;22738;45.560;9.434;2022-12-18T20:57:12;101675.25;;;5.47;100.00
36788;BME280;22738;45.560;9.434;2022-12-18T21:03:54;101677.03;;;5.42;100.00
36788;BME280;22738;45.560;9.434;2022-12-18T21:10:35;101686.44;;;5.45;100.00
36788;BME280;22738;45.560;9.434;2022-12-18T21:17:16;101699.09;;;5.58;100.00
36788;BME280;22738;45.560;9.434;2022-12-18T21:23:57;101697.38;;;5.57;100.00
36788;BME280;22738;45.560;9.434;2022-12-18T21:30:38;101703.53;;;5.47;100.00
36788;BME280;22738;45.560;9.434;2022-12-18T21:37:19;101692.31;;;5.53;100.00
36788;BME280;22738;45.560;9.434;2022-12-18T21:44:00;101707.78;;;5.51;100.00
36788;BME280;22738;45.560;9.434;2022-12-18T21:50:47;101696.09;;;5.26;100.00
36788;BME280;22738;45.560;9.434;2022-12-18T21:57:28;101692.66;;;5.26;100.00
36788;BME280;22738;45.560;9.434;2022-12-18T22:04:10;101688.31;;;5.31;100.00
36788;BME280;22738;45.560;9.434;2022-12-18T22:10:51;101687.44;;;5.33;100.00
36788;BME280;22738;45.560;9.434;2022-12-18T22:17:32;101685.59;;;5.41;100.00
36788;BME280;22738;45.560;9.434;2022-12-18T22:24:24;101700.97;;;5.47;100.00
36788;BME280;22738;45.560;9.434;2022-12-18T22:31:06;101694.88;;;5.53;100.00
36788;BME280;22738;45.560;9.434;2022-12-18T22:37:47;101688.81;;;5.58;100.00
36788;BME280;22738;45.560;9.434;2022-12-18T22:44:28;101687.13;;;5.54;100.00
36788;BME280;22738;45.560;9.434;2022-12-18T22:51:17;101688.19;;;5.43;100.00
36788;BME280;22738;45.560;9.434;2022-12-18T22:57:58;101688.94;;;5.49;100.00
36788;BME280;22738;45.560;9.434;2022-12-18T23:04:39;101683.03;;;5.41;100.00
36788;BME280;22738;45.560;9.434;2022-12-18T23:11:20;101687.25;;;5.47;100.00
36788;BME280;22738;45.560;9.434;2022-12-18T23:18:01;101677.94;;;5.37;100.00
36788;BME280;22738;45.560;9.434;2022-12-18T23:24:42;101678.69;;;5.46;100.00
36788;BME280;22738;45.560;9.434;2022-12-18T23:31:26;101668.28;;;5.55;100.00
36788;BME280;22738;45.560;9.434;2022-12-18T23:38:08;101661.41;;;5.54;100.00
36788;BME280;22738;45.560;9.434;2022-12-18T23:44:49;101673.53;;;5.46;100.00
36788;BME280;22738;45.560;9.434;2022-12-18T23:51:31;101659.09;;;5.38;100.00
36788;BME280;22738;45.560;9.434;2022-12-18T23:58:21;101659.81;;;5.47;100.00
